sensor_id;sensor_type;location;lat;lon;timestamp;temperature;humidity
53880;DHT22;39791;53.184;5.486;2022-12-20T00:02:23;10.40;1.00
53880;DHT22;39791;53.184;5.486;2022-12-20T00:04:49;10.70;1.00
53880;DHT22;39791;53.184;5.486;2022-12-20T00:07:15;10.60;1.00
53880;DHT22;39791;53.184;5.486;2022-12-20T00:09:40;10.70;1.00
53880;DHT22;39791;53.184;5.486;2022-12-20T00:12:06;10.50;1.00
53880;DHT22;39791;53.184;5.486;2022-12-20T00:14:31;10.60;1.00
53880;DHT22;39791;53.184;5.486;2022-12-20T00:16:57;10.30;99.90
53880;DHT22;39791;53.184;5.486;2022-12-20T00:19:22;10.70;1.00
53880;DHT22;39791;53.184;5.486;2022-12-20T00:21:48;10.80;1.00
53880;DHT22;39791;53.184;5.486;2022-12-20T00:24:14;10.80;1.00
53880;DHT22;39791;53.184;5.486;2022-12-20T00:26:39;10.50;99.90
53880;DHT22;39791;53.184;5.486;2022-12-20T00:29:05;11.40;99.90
53880;DHT22;39791;53.184;5.486;2022-12-20T00:31:31;10.60;99.90
53880;DHT22;39791;53.184;5.486;2022-12-20T00:33:58;10.50;99.90
53880;DHT22;39791;53.184;5.486;2022-12-20T00:36:25;10.70;99.90
53880;DHT22;39791;53.184;5.486;2022-12-20T00:38:53;10.60;99.90
53880;DHT22;39791;53.184;5.486;2022-12-20T00:41:21;10.70;99.90
53880;DHT22;39791;53.184;5.486;2022-12-20T00:43:48;10.60;99.90
53880;DHT22;39791;53.184;5.486;2022-12-20T00:46:15;10.60;99.90
53880;DHT22;39791;53.184;5.486;2022-12-20T00:48:41;10.80;99.90
53880;DHT22;39791;53.184;5.486;2022-12-20T00:51:12;10.90;86.50
53880;DHT22;39791;53.184;5.486;2022-12-20T00:53:39;10.90;46.90
53880;DHT22;39791;53.184;5.486;2022-12-20T00:56:06;10.80;10.10
53880;DHT22;39791;53.184;5.486;2022-12-20T00:58:33;10.60;1.00
53880;DHT22;39791;53.184;5.486;2022-12-20T01:00:58;10.70;1.00
53880;DHT22;39791;53.184;5.486;2022-12-20T01:03:25;10.70;1.00
53880;DHT22;39791;53.184;5.486;2022-12-20T01:05:59;10.50;1.00
53880;DHT22;39791;53.184;5.486;2022-12-20T01:08:29;10.40;1.00
53880;DHT22;39791;53.184;5.486;2022-12-20T01:11:04;10.50;1.00
53880;DHT22;39791;53.184;5.486;2022-12-20T01:13:32;10.60;1.00
53880;DHT22;39791;53.184;5.486;2022-12-20T01:16:14;10.40;1.00
53880;DHT22;39791;53.184;5.486;2022-12-20T01:18:40;10.50;1.00
53880;DHT22;39791;53.184;5.486;2022-12-20T01:21:09;10.40;1.00
53880;DHT22;39791;53.184;5.486;2022-12-20T01:23:35;10.50;1.00
53880;DHT22;39791;53.184;5.486;2022-12-20T01:26:02;10.60;1.00
53880;DHT22;39791;53.184;5.486;2022-12-20T01:28:30;10.50;99.90
53880;DHT22;39791;53.184;5.486;2022-12-20T01:30:55;10.50;99.90
53880;DHT22;39791;53.184;5.486;2022-12-20T01:33:22;10.50;99.90
53880;DHT22;39791;53.184;5.486;2022-12-20T01:35:59;10.30;99.90
53880;DHT22;39791;53.184;5.486;2022-12-20T01:38:25;10.30;99.90
53880;DHT22;39791;53.184;5.486;2022-12-20T01:40:51;10.30;99.90
53880;DHT22;39791;53.184;5.486;2022-12-20T01:43:18;10.10;99.90
53880;DHT22;39791;53.184;5.486;2022-12-20T01:45:44;10.30;99.90
53880;DHT22;39791;53.184;5.486;2022-12-20T01:48:10;10.10;99.90
53880;DHT22;39791;53.184;5.486;2022-12-20T01:50:36;10.30;99.90
53880;DHT22;39791;53.184;5.486;2022-12-20T01:53:03;10.30;99.90
53880;DHT22;39791;53.184;5.486;2022-12-20T01:55:30;10.20;99.90
53880;DHT22;39791;53.184;5.486;2022-12-20T01:58:06;10.10;99.90
53880;DHT22;39791;53.184;5.486;2022-12-20T02:00:33;9.90;99.90
53880;DHT22;39791;53.184;5.486;2022-12-20T02:03:00;10.10;99.90
53880;DHT22;39791;53.184;5.486;2022-12-20T02:05:32;10.10;99.90
53880;DHT22;39791;53.184;5.486;2022-12-20T02:07:58;10.00;99.90
53880;DHT22;39791;53.184;5.486;2022-12-20T02:10:34;9.90;99.90
53880;DHT22;39791;53.184;5.486;2022-12-20T02:13:11;10.10;99.90
53880;DHT22;39791;53.184;5.486;2022-12-20T02:15:55;10.00;99.90
53880;DHT22;39791;53.184;5.486;2022-12-20T02:18:59;10.10;1.00
53880;DHT22;39791;53.184;5.486;2022-12-20T02:21:38;9.70;1.00
53880;DHT22;39791;53.184;5.486;2022-12-20T02:24:27;10.00;78.50
53880;DHT22;39791;53.184;5.486;2022-12-20T02:29:39;10.10;99.90
53880;DHT22;39791;53.184;5.486;2022-12-20T02:32:13;9.70;1.00
53880;DHT22;39791;53.184;5.486;2022-12-20T02:34:41;10.00;99.90
53880;DHT22;39791;53.184;5.486;2022-12-20T02:37:07;10.10;99.90
53880;DHT22;39791;53.184;5.486;2022-12-20T02:39:35;10.10;1.00
53880;DHT22;39791;53.184;5.486;2022-12-20T02:42:18;9.90;1.00
53880;DHT22;39791;53.184;5.486;2022-12-20T02:44:53;9.80;99.90
53880;DHT22;39791;53.184;5.486;2022-12-20T02:47:57;10.20;99.90
53880;DHT22;39791;53.184;5.486;2022-12-20T02:50:30;9.70;1.00
53880;DHT22;39791;53.184;5.486;2022-12-20T02:52:57;10.20;59.00
53880;DHT22;39791;53.184;5.486;2022-12-20T02:55:36;9.80;99.90
53880;DHT22;39791;53.184;5.486;2022-12-20T02:58:09;10.30;99.90
53880;DHT22;39791;53.184;5.486;2022-12-20T03:00:39;10.40;1.00
53880;DHT22;39791;53.184;5.486;2022-12-20T03:03:10;10.00;99.90
53880;DHT22;39791;53.184;5.486;2022-12-20T03:05:52;10.40;1.00
53880;DHT22;39791;53.184;5.486;2022-12-20T03:08:19;9.90;99.90
53880;DHT22;39791;53.184;5.486;2022-12-20T03:10:46;10.50;1.00
53880;DHT22;39791;53.184;5.486;2022-12-20T03:13:12;10.40;1.00
53880;DHT22;39791;53.184;5.486;2022-12-20T03:15:37;10.20;6.70
53880;DHT22;39791;53.184;5.486;2022-12-20T03:18:03;10.10;88.20
53880;DHT22;39791;53.184;5.486;2022-12-20T03:20:29;10.20;1.00
53880;DHT22;39791;53.184;5.486;2022-12-20T03:22:55;10.20;99.90
53880;DHT22;39791;53.184;5.486;2022-12-20T03:25:20;10.00;99.90
53880;DHT22;39791;53.184;5.486;2022-12-20T03:27:46;10.70;1.00
53880;DHT22;39791;53.184;5.486;2022-12-20T03:30:12;10.70;91.60
53880;DHT22;39791;53.184;5.486;2022-12-20T03:32:38;10.30;99.90
53880;DHT22;39791;53.184;5.486;2022-12-20T03:35:04;10.70;1.00
53880;DHT22;39791;53.184;5.486;2022-12-20T03:37:30;10.60;72.60
53880;DHT22;39791;53.184;5.486;2022-12-20T03:39:55;10.30;99.90
53880;DHT22;39791;53.184;5.486;2022-12-20T03:42:21;10.80;1.00
53880;DHT22;39791;53.184;5.486;2022-12-20T03:44:47;10.50;99.90
53880;DHT22;39791;53.184;5.486;2022-12-20T03:47:12;10.90;99.90
53880;DHT22;39791;53.184;5.486;2022-12-20T03:49:38;10.70;1.00
53880;DHT22;39791;53.184;5.486;2022-12-20T03:52:04;10.40;61.00
53880;DHT22;39791;53.184;5.486;2022-12-20T03:54:30;10.40;99.90
53880;DHT22;39791;53.184;5.486;2022-12-20T03:56:55;11.00;99.90
53880;DHT22;39791;53.184;5.486;2022-12-20T03:59:21;11.00;61.70
53880;DHT22;39791;53.184;5.486;2022-12-20T04:01:46;10.90;99.90
53880;DHT22;39791;53.184;5.486;2022-12-20T04:04:14;10.90;56.00
53880;DHT22;39791;53.184;5.486;2022-12-20T04:06:40;10.50;99.90
53880;DHT22;39791;53.184;5.486;2022-12-20T04:09:05;10.70;99.90
53880;DHT22;39791;53.184;5.486;2022-12-20T04:11:31;10.90;99.90
53880;DHT22;39791;53.184;5.486;2022-12-20T04:13:56;10.80;99.90
53880;DHT22;39791;53.184;5.486;2022-12-20T04:16:24;10.70;99.90
53880;DHT22;39791;53.184;5.486;2022-12-20T04:18:51;11.10;33.30
53880;DHT22;39791;53.184;5.486;2022-12-20T04:21:25;10.90;99.90
53880;DHT22;39791;53.184;5.486;2022-12-20T04:23:51;11.00;99.90
53880;DHT22;39791;53.184;5.486;2022-12-20T04:26:17;11.00;97.80
53880;DHT22;39791;53.184;5.486;2022-12-20T04:28:43;11.40;33.70
53880;DHT22;39791;53.184;5.486;2022-12-20T04:31:09;11.40;1.00
53880;DHT22;39791;53.184;5.486;2022-12-20T04:33:35;10.90;99.90
53880;DHT22;39791;53.184;5.486;2022-12-20T04:36:01;11.00;99.90
53880;DHT22;39791;53.184;5.486;2022-12-20T04:38:26;11.10;15.20
53880;DHT22;39791;53.184;5.486;2022-12-20T04:40:53;11.10;1.00
53880;DHT22;39791;53.184;5.486;2022-12-20T04:43:19;10.80;99.90
53880;DHT22;39791;53.184;5.486;2022-12-20T04:45:49;10.80;99.90
53880;DHT22;39791;53.184;5.486;2022-12-20T04:48:16;11.20;57.20
53880;DHT22;39791;53.184;5.486;2022-12-20T04:50:42;10.60;1.00
53880;DHT22;39791;53.184;5.486;2022-12-20T04:53:10;10.70;1.00
53880;DHT22;39791;53.184;5.486;2022-12-20T04:55:54;10.80;1.00
53880;DHT22;39791;53.184;5.486;2022-12-20T04:58:20;10.90;1.00
53880;DHT22;39791;53.184;5.486;2022-12-20T05:00:45;10.80;99.90
53880;DHT22;39791;53.184;5.486;2022-12-20T05:03:11;10.70;99.90
53880;DHT22;39791;53.184;5.486;2022-12-20T05:05:36;11.10;99.90
53880;DHT22;39791;53.184;5.486;2022-12-20T05:08:02;10.70;99.90
53880;DHT22;39791;53.184;5.486;2022-12-20T05:10:27;10.80;99.90
53880;DHT22;39791;53.184;5.486;2022-12-20T05:12:53;10.70;69.60
53880;DHT22;39791;53.184;5.486;2022-12-20T05:15:19;11.00;1.00
53880;DHT22;39791;53.184;5.486;2022-12-20T05:17:44;10.70;1.00
53880;DHT22;39791;53.184;5.486;2022-12-20T05:20:10;10.90;1.00
53880;DHT22;39791;53.184;5.486;2022-12-20T05:22:36;11.00;99.90
53880;DHT22;39791;53.184;5.486;2022-12-20T05:25:20;11.10;99.90
53880;DHT22;39791;53.184;5.486;2022-12-20T05:28:04;10.90;99.90
53880;DHT22;39791;53.184;5.486;2022-12-20T05:30:30;11.10;99.90
53880;DHT22;39791;53.184;5.486;2022-12-20T05:32:55;11.40;99.90
53880;DHT22;39791;53.184;5.486;2022-12-20T05:35:21;11.30;99.90
53880;DHT22;39791;53.184;5.486;2022-12-20T05:37:47;11.20;1.00
53880;DHT22;39791;53.184;5.486;2022-12-20T05:40:12;11.10;1.00
53880;DHT22;39791;53.184;5.486;2022-12-20T05:42:38;11.10;99.90
53880;DHT22;39791;53.184;5.486;2022-12-20T05:45:05;11.00;99.90
53880;DHT22;39791;53.184;5.486;2022-12-20T05:47:31;11.10;99.90
53880;DHT22;39791;53.184;5.486;2022-12-20T05:49:59;11.00;99.90
53880;DHT22;39791;53.184;5.486;2022-12-20T05:52:25;11.00;99.90
53880;DHT22;39791;53.184;5.486;2022-12-20T05:54:51;11.00;94.80
53880;DHT22;39791;53.184;5.486;2022-12-20T05:57:16;11.30;1.00
53880;DHT22;39791;53.184;5.486;2022-12-20T05:59:42;11.30;1.00
53880;DHT22;39791;53.184;5.486;2022-12-20T06:02:08;11.30;1.00
53880;DHT22;39791;53.184;5.486;2022-12-20T06:04:35;11.20;1.00
53880;DHT22;39791;53.184;5.486;2022-12-20T06:07:01;11.10;99.90
53880;DHT22;39791;53.184;5.486;2022-12-20T06:09:27;11.00;99.90
53880;DHT22;39791;53.184;5.486;2022-12-20T06:11:52;11.30;99.90
53880;DHT22;39791;53.184;5.486;2022-12-20T06:14:18;10.90;99.90
53880;DHT22;39791;53.184;5.486;2022-12-20T06:16:44;11.20;99.90
53880;DHT22;39791;53.184;5.486;2022-12-20T06:19:09;11.40;99.90
53880;DHT22;39791;53.184;5.486;2022-12-20T06:21:35;10.90;1.00
53880;DHT22;39791;53.184;5.486;2022-12-20T06:24:00;11.40;1.00
53880;DHT22;39791;53.184;5.486;2022-12-20T06:26:26;11.30;31.50
53880;DHT22;39791;53.184;5.486;2022-12-20T06:28:52;10.70;99.90
53880;DHT22;39791;53.184;5.486;2022-12-20T06:31:19;10.90;99.90
53880;DHT22;39791;53.184;5.486;2022-12-20T06:33:44;11.00;67.60
53880;DHT22;39791;53.184;5.486;2022-12-20T06:36:10;10.90;99.90
53880;DHT22;39791;53.184;5.486;2022-12-20T06:38:36;10.60;38.80
53880;DHT22;39791;53.184;5.486;2022-12-20T06:41:01;11.00;1.00
53880;DHT22;39791;53.184;5.486;2022-12-20T06:43:27;10.80;99.90
53880;DHT22;39791;53.184;5.486;2022-12-20T06:45:53;11.10;47.90
53880;DHT22;39791;53.184;5.486;2022-12-20T06:48:18;10.60;99.90
53880;DHT22;39791;53.184;5.486;2022-12-20T06:50:47;10.70;1.00
53880;DHT22;39791;53.184;5.486;2022-12-20T06:53:13;10.30;1.00
53880;DHT22;39791;53.184;5.486;2022-12-20T06:55:39;10.50;99.90
53880;DHT22;39791;53.184;5.486;2022-12-20T06:58:05;11.40;99.90
53880;DHT22;39791;53.184;5.486;2022-12-20T07:00:31;11.50;99.90
53880;DHT22;39791;53.184;5.486;2022-12-20T07:02:56;11.10;99.90
53880;DHT22;39791;53.184;5.486;2022-12-20T07:05:22;10.50;99.90
53880;DHT22;39791;53.184;5.486;2022-12-20T07:07:47;11.30;99.90
53880;DHT22;39791;53.184;5.486;2022-12-20T07:10:13;11.20;99.90
53880;DHT22;39791;53.184;5.486;2022-12-20T07:12:39;10.50;99.90
53880;DHT22;39791;53.184;5.486;2022-12-20T07:15:05;10.70;99.90
53880;DHT22;39791;53.184;5.486;2022-12-20T07:17:32;10.70;99.90
53880;DHT22;39791;53.184;5.486;2022-12-20T07:19:57;11.30;99.90
53880;DHT22;39791;53.184;5.486;2022-12-20T07:22:23;10.90;99.90
53880;DHT22;39791;53.184;5.486;2022-12-20T07:24:49;10.70;99.90
53880;DHT22;39791;53.184;5.486;2022-12-20T07:27:14;11.70;99.90
53880;DHT22;39791;53.184;5.486;2022-12-20T07:29:40;11.10;99.90
53880;DHT22;39791;53.184;5.486;2022-12-20T07:32:06;11.80;99.90
53880;DHT22;39791;53.184;5.486;2022-12-20T07:34:32;11.70;99.90
53880;DHT22;39791;53.184;5.486;2022-12-20T07:36:58;11.30;99.90
53880;DHT22;39791;53.184;5.486;2022-12-20T07:39:24;11.50;99.90
53880;DHT22;39791;53.184;5.486;2022-12-20T07:41:55;11.30;99.90
53880;DHT22;39791;53.184;5.486;2022-12-20T07:44:22;11.20;99.90
53880;DHT22;39791;53.184;5.486;2022-12-20T07:46:48;11.10;99.90
53880;DHT22;39791;53.184;5.486;2022-12-20T07:49:14;11.60;99.90
53880;DHT22;39791;53.184;5.486;2022-12-20T07:51:46;11.20;99.90
53880;DHT22;39791;53.184;5.486;2022-12-20T07:54:35;11.00;99.90
53880;DHT22;39791;53.184;5.486;2022-12-20T07:57:13;11.60;99.90
53880;DHT22;39791;53.184;5.486;2022-12-20T07:59:43;11.60;99.90
53880;DHT22;39791;53.184;5.486;2022-12-20T08:02:16;11.20;99.90
53880;DHT22;39791;53.184;5.486;2022-12-20T08:04:43;11.20;99.90
53880;DHT22;39791;53.184;5.486;2022-12-20T08:07:09;11.20;99.90
53880;DHT22;39791;53.184;5.486;2022-12-20T08:09:38;11.10;99.90
53880;DHT22;39791;53.184;5.486;2022-12-20T08:12:07;11.50;99.90
53880;DHT22;39791;53.184;5.486;2022-12-20T08:14:35;11.60;99.90
53880;DHT22;39791;53.184;5.486;2022-12-20T08:17:00;11.50;99.90
53880;DHT22;39791;53.184;5.486;2022-12-20T08:19:26;11.20;99.90
53880;DHT22;39791;53.184;5.486;2022-12-20T08:21:51;11.20;99.90
53880;DHT22;39791;53.184;5.486;2022-12-20T08:24:17;11.40;1.00
53880;DHT22;39791;53.184;5.486;2022-12-20T08:26:42;11.60;99.90
53880;DHT22;39791;53.184;5.486;2022-12-20T08:29:08;11.40;99.90
53880;DHT22;39791;53.184;5.486;2022-12-20T08:31:38;11.60;99.90
53880;DHT22;39791;53.184;5.486;2022-12-20T08:34:05;11.90;1.00
53880;DHT22;39791;53.184;5.486;2022-12-20T08:36:30;11.90;99.90
53880;DHT22;39791;53.184;5.486;2022-12-20T08:38:56;11.60;79.50
53880;DHT22;39791;53.184;5.486;2022-12-20T08:41:22;11.80;1.00
53880;DHT22;39791;53.184;5.486;2022-12-20T08:43:47;11.90;99.90
53880;DHT22;39791;53.184;5.486;2022-12-20T08:46:13;11.70;7.20
53880;DHT22;39791;53.184;5.486;2022-12-20T08:48:39;11.90;99.90
53880;DHT22;39791;53.184;5.486;2022-12-20T08:51:08;11.90;99.90
53880;DHT22;39791;53.184;5.486;2022-12-20T08:53:35;11.80;1.00
53880;DHT22;39791;53.184;5.486;2022-12-20T08:56:10;11.80;1.00
53880;DHT22;39791;53.184;5.486;2022-12-20T08:58:36;12.10;99.90
53880;DHT22;39791;53.184;5.486;2022-12-20T09:01:05;11.80;5.40
53880;DHT22;39791;53.184;5.486;2022-12-20T09:03:32;11.80;1.00
53880;DHT22;39791;53.184;5.486;2022-12-20T09:05:58;12.00;99.90
53880;DHT22;39791;53.184;5.486;2022-12-20T09:08:24;12.00;76.60
53880;DHT22;39791;53.184;5.486;2022-12-20T09:10:50;12.00;1.00
53880;DHT22;39791;53.184;5.486;2022-12-20T09:13:16;11.70;99.90
53880;DHT22;39791;53.184;5.486;2022-12-20T09:15:41;11.80;99.90
53880;DHT22;39791;53.184;5.486;2022-12-20T09:18:08;11.70;99.90
53880;DHT22;39791;53.184;5.486;2022-12-20T09:20:33;12.20;1.00
53880;DHT22;39791;53.184;5.486;2022-12-20T09:22:59;11.90;1.00
53880;DHT22;39791;53.184;5.486;2022-12-20T09:25:26;12.60;1.00
53880;DHT22;39791;53.184;5.486;2022-12-20T09:27:52;11.90;99.90
53880;DHT22;39791;53.184;5.486;2022-12-20T09:30:19;11.70;99.90
53880;DHT22;39791;53.184;5.486;2022-12-20T09:32:45;12.00;99.90
53880;DHT22;39791;53.184;5.486;2022-12-20T09:35:10;12.00;99.90
53880;DHT22;39791;53.184;5.486;2022-12-20T09:37:36;11.80;27.50
53880;DHT22;39791;53.184;5.486;2022-12-20T09:40:01;11.70;1.00
53880;DHT22;39791;53.184;5.486;2022-12-20T09:42:29;11.90;1.00
53880;DHT22;39791;53.184;5.486;2022-12-20T09:45:06;11.70;1.00
53880;DHT22;39791;53.184;5.486;2022-12-20T09:47:34;11.70;1.00
53880;DHT22;39791;53.184;5.486;2022-12-20T09:50:02;11.80;1.00
53880;DHT22;39791;53.184;5.486;2022-12-20T09:52:51;11.80;1.00
53880;DHT22;39791;53.184;5.486;2022-12-20T09:58:17;11.50;1.00
53880;DHT22;39791;53.184;5.486;2022-12-20T10:00:48;11.30;1.00
53880;DHT22;39791;53.184;5.486;2022-12-20T10:03:34;11.70;93.90
53880;DHT22;39791;53.184;5.486;2022-12-20T10:09:12;11.70;99.90
53880;DHT22;39791;53.184;5.486;2022-12-20T10:15:00;11.40;99.90
53880;DHT22;39791;53.184;5.486;2022-12-20T10:17:56;11.40;1.00
53880;DHT22;39791;53.184;5.486;2022-12-20T10:25:30;11.00;96.50
53880;DHT22;39791;53.184;5.486;2022-12-20T10:27:57;11.00;99.90
53880;DHT22;39791;53.184;5.486;2022-12-20T10:30:26;11.00;99.90
53880;DHT22;39791;53.184;5.486;2022-12-20T10:32:55;10.90;99.90
53880;DHT22;39791;53.184;5.486;2022-12-20T10:35:24;11.00;99.90
53880;DHT22;39791;53.184;5.486;2022-12-20T10:38:00;11.40;1.00
53880;DHT22;39791;53.184;5.486;2022-12-20T10:40:29;11.10;1.00
53880;DHT22;39791;53.184;5.486;2022-12-20T10:42:55;11.30;1.00
53880;DHT22;39791;53.184;5.486;2022-12-20T10:47:49;11.30;1.00
53880;DHT22;39791;53.184;5.486;2022-12-20T10:50:19;11.20;1.00
53880;DHT22;39791;53.184;5.486;2022-12-20T10:53:03;10.90;1.00
53880;DHT22;39791;53.184;5.486;2022-12-20T10:55:35;11.00;1.00
53880;DHT22;39791;53.184;5.486;2022-12-20T10:58:10;11.00;38.90
53880;DHT22;39791;53.184;5.486;2022-12-20T11:00:38;10.90;18.90
53880;DHT22;39791;53.184;5.486;2022-12-20T11:03:27;10.70;1.00
53880;DHT22;39791;53.184;5.486;2022-12-20T11:05:59;11.20;87.50
53880;DHT22;39791;53.184;5.486;2022-12-20T11:08:28;12.50;99.90
53880;DHT22;39791;53.184;5.486;2022-12-20T11:13:36;11.70;1.00
53880;DHT22;39791;53.184;5.486;2022-12-20T11:16:01;10.90;88.60
53880;DHT22;39791;53.184;5.486;2022-12-20T11:24:12;10.70;99.90
53880;DHT22;39791;53.184;5.486;2022-12-20T11:27:05;10.70;99.90
53880;DHT22;39791;53.184;5.486;2022-12-20T11:32:33;11.00;99.90
53880;DHT22;39791;53.184;5.486;2022-12-20T11:37:48;11.10;99.90
53880;DHT22;39791;53.184;5.486;2022-12-20T11:40:42;11.30;99.90
53880;DHT22;39791;53.184;5.486;2022-12-20T11:53:44;11.50;99.90
53880;DHT22;39791;53.184;5.486;2022-12-20T11:56:17;11.20;99.90
53880;DHT22;39791;53.184;5.486;2022-12-20T11:58:53;11.70;99.90
53880;DHT22;39791;53.184;5.486;2022-12-20T12:01:23;10.80;99.90
53880;DHT22;39791;53.184;5.486;2022-12-20T12:06:40;11.50;99.90
53880;DHT22;39791;53.184;5.486;2022-12-20T12:11:48;10.60;99.90
53880;DHT22;39791;53.184;5.486;2022-12-20T12:14:44;10.90;99.90
53880;DHT22;39791;53.184;5.486;2022-12-20T12:17:26;10.80;99.90
53880;DHT22;39791;53.184;5.486;2022-12-20T12:19:55;10.80;99.90
53880;DHT22;39791;53.184;5.486;2022-12-20T12:22:31;11.10;99.90
53880;DHT22;39791;53.184;5.486;2022-12-20T12:25:01;11.30;99.90
53880;DHT22;39791;53.184;5.486;2022-12-20T12:27:28;10.80;99.90
53880;DHT22;39791;53.184;5.486;2022-12-20T12:29:56;11.60;99.90
53880;DHT22;39791;53.184;5.486;2022-12-20T12:32:59;10.80;99.90
53880;DHT22;39791;53.184;5.486;2022-12-20T12:36:05;11.20;99.90
53880;DHT22;39791;53.184;5.486;2022-12-20T12:47:28;12.10;99.90
53880;DHT22;39791;53.184;5.486;2022-12-20T12:49:59;11.80;99.90
53880;DHT22;39791;53.184;5.486;2022-12-20T12:52:36;11.00;99.90
53880;DHT22;39791;53.184;5.486;2022-12-20T12:55:34;10.90;99.90
53880;DHT22;39791;53.184;5.486;2022-12-20T12:58:33;12.20;99.90
53880;DHT22;39791;53.184;5.486;2022-12-20T13:01:08;11.30;99.90
53880;DHT22;39791;53.184;5.486;2022-12-20T13:27:37;10.80;99.90
53880;DHT22;39791;53.184;5.486;2022-12-20T13:32:53;11.10;99.90
53880;DHT22;39791;53.184;5.486;2022-12-20T13:43:04;11.20;99.90
53880;DHT22;39791;53.184;5.486;2022-12-20T13:45:31;10.90;99.90
53880;DHT22;39791;53.184;5.486;2022-12-20T13:48:02;10.80;99.90
53880;DHT22;39791;53.184;5.486;2022-12-20T13:50:32;11.80;99.90
53880;DHT22;39791;53.184;5.486;2022-12-20T13:53:01;11.70;99.90
53880;DHT22;39791;53.184;5.486;2022-12-20T13:55:34;11.60;99.90
53880;DHT22;39791;53.184;5.486;2022-12-20T13:58:11;10.90;99.90
53880;DHT22;39791;53.184;5.486;2022-12-20T14:00:38;11.20;99.90
53880;DHT22;39791;53.184;5.486;2022-12-20T14:03:04;11.60;99.90
53880;DHT22;39791;53.184;5.486;2022-12-20T14:05:35;11.00;99.90
53880;DHT22;39791;53.184;5.486;2022-12-20T14:08:07;10.60;99.90
53880;DHT22;39791;53.184;5.486;2022-12-20T14:10:34;11.80;99.90
53880;DHT22;39791;53.184;5.486;2022-12-20T14:13:00;10.50;99.90
53880;DHT22;39791;53.184;5.486;2022-12-20T14:15:33;11.10;99.90
53880;DHT22;39791;53.184;5.486;2022-12-20T14:18:18;11.40;99.90
53880;DHT22;39791;53.184;5.486;2022-12-20T14:20:53;11.10;99.90
53880;DHT22;39791;53.184;5.486;2022-12-20T14:23:22;11.40;99.90
53880;DHT22;39791;53.184;5.486;2022-12-20T14:25:52;10.70;99.90
53880;DHT22;39791;53.184;5.486;2022-12-20T14:28:24;10.30;99.90
53880;DHT22;39791;53.184;5.486;2022-12-20T14:30:51;10.30;99.90
53880;DHT22;39791;53.184;5.486;2022-12-20T14:33:38;10.20;99.90
53880;DHT22;39791;53.184;5.486;2022-12-20T14:38:44;10.00;99.90
53880;DHT22;39791;53.184;5.486;2022-12-20T14:43:55;10.30;99.90
53880;DHT22;39791;53.184;5.486;2022-12-20T14:46:22;10.30;99.90
53880;DHT22;39791;53.184;5.486;2022-12-20T14:48:48;11.90;99.90
53880;DHT22;39791;53.184;5.486;2022-12-20T14:51:29;11.90;99.90
53880;DHT22;39791;53.184;5.486;2022-12-20T14:53:55;11.30;99.90
53880;DHT22;39791;53.184;5.486;2022-12-20T14:56:22;10.00;99.90
53880;DHT22;39791;53.184;5.486;2022-12-20T14:59:13;10.60;99.90
53880;DHT22;39791;53.184;5.486;2022-12-20T15:01:40;10.20;99.90
53880;DHT22;39791;53.184;5.486;2022-12-20T15:04:30;11.00;99.90
53880;DHT22;39791;53.184;5.486;2022-12-20T15:06:58;10.00;99.90
53880;DHT22;39791;53.184;5.486;2022-12-20T15:09:23;10.40;99.90
53880;DHT22;39791;53.184;5.486;2022-12-20T15:11:50;11.70;99.90
53880;DHT22;39791;53.184;5.486;2022-12-20T15:14:35;11.30;99.90
53880;DHT22;39791;53.184;5.486;2022-12-20T15:17:12;10.00;99.90
53880;DHT22;39791;53.184;5.486;2022-12-20T15:19:39;10.90;99.90
53880;DHT22;39791;53.184;5.486;2022-12-20T15:22:05;9.60;99.90
53880;DHT22;39791;53.184;5.486;2022-12-20T15:24:31;10.50;99.90
53880;DHT22;39791;53.184;5.486;2022-12-20T15:26:56;9.80;99.90
53880;DHT22;39791;53.184;5.486;2022-12-20T15:29:24;11.10;99.90
53880;DHT22;39791;53.184;5.486;2022-12-20T15:32:13;11.50;99.90
53880;DHT22;39791;53.184;5.486;2022-12-20T15:34:36;9.90;99.90
53880;DHT22;39791;53.184;5.486;2022-12-20T15:37:03;9.60;99.90
53880;DHT22;39791;53.184;5.486;2022-12-20T15:39:31;9.50;99.90
53880;DHT22;39791;53.184;5.486;2022-12-20T15:41:59;9.30;99.90
53880;DHT22;39791;53.184;5.486;2022-12-20T15:44:28;9.70;99.90
53880;DHT22;39791;53.184;5.486;2022-12-20T15:46:54;10.30;99.90
53880;DHT22;39791;53.184;5.486;2022-12-20T15:49:23;9.60;99.90
53880;DHT22;39791;53.184;5.486;2022-12-20T15:51:50;11.30;99.90
53880;DHT22;39791;53.184;5.486;2022-12-20T15:54:34;11.40;99.90
53880;DHT22;39791;53.184;5.486;2022-12-20T15:57:03;10.90;99.90
53880;DHT22;39791;53.184;5.486;2022-12-20T15:59:29;11.40;99.90
53880;DHT22;39791;53.184;5.486;2022-12-20T16:01:55;9.70;99.90
53880;DHT22;39791;53.184;5.486;2022-12-20T16:04:21;11.30;99.90
53880;DHT22;39791;53.184;5.486;2022-12-20T16:06:48;11.10;99.90
53880;DHT22;39791;53.184;5.486;2022-12-20T16:09:15;9.80;99.90
53880;DHT22;39791;53.184;5.486;2022-12-20T16:11:42;11.00;99.90
53880;DHT22;39791;53.184;5.486;2022-12-20T16:14:13;11.20;99.90
53880;DHT22;39791;53.184;5.486;2022-12-20T16:16:39;9.90;99.90
53880;DHT22;39791;53.184;5.486;2022-12-20T16:19:05;11.00;99.90
53880;DHT22;39791;53.184;5.486;2022-12-20T16:21:35;10.30;99.90
53880;DHT22;39791;53.184;5.486;2022-12-20T16:24:08;10.80;99.90
53880;DHT22;39791;53.184;5.486;2022-12-20T16:26:34;10.50;99.90
53880;DHT22;39791;53.184;5.486;2022-12-20T16:29:00;10.70;99.90
53880;DHT22;39791;53.184;5.486;2022-12-20T16:31:40;9.40;99.90
53880;DHT22;39791;53.184;5.486;2022-12-20T16:34:13;10.80;99.90
53880;DHT22;39791;53.184;5.486;2022-12-20T16:36:39;10.70;99.90
53880;DHT22;39791;53.184;5.486;2022-12-20T16:39:05;10.30;99.90
53880;DHT22;39791;53.184;5.486;2022-12-20T16:41:32;10.10;99.90
53880;DHT22;39791;53.184;5.486;2022-12-20T16:43:59;11.50;99.90
53880;DHT22;39791;53.184;5.486;2022-12-20T16:46:27;9.80;99.90
53880;DHT22;39791;53.184;5.486;2022-12-20T16:48:54;11.00;99.90
53880;DHT22;39791;53.184;5.486;2022-12-20T16:51:29;11.20;99.90
53880;DHT22;39791;53.184;5.486;2022-12-20T16:53:58;11.40;99.90
53880;DHT22;39791;53.184;5.486;2022-12-20T16:56:25;10.10;99.90
53880;DHT22;39791;53.184;5.486;2022-12-20T16:58:51;10.00;99.90
53880;DHT22;39791;53.184;5.486;2022-12-20T17:01:26;11.50;99.90
53880;DHT22;39791;53.184;5.486;2022-12-20T17:03:53;11.50;99.90
53880;DHT22;39791;53.184;5.486;2022-12-20T17:06:19;9.60;99.90
53880;DHT22;39791;53.184;5.486;2022-12-20T17:08:46;10.00;99.90
53880;DHT22;39791;53.184;5.486;2022-12-20T17:11:38;10.80;99.90
53880;DHT22;39791;53.184;5.486;2022-12-20T17:14:04;10.20;99.90
53880;DHT22;39791;53.184;5.486;2022-12-20T17:16:29;9.30;99.90
53880;DHT22;39791;53.184;5.486;2022-12-20T17:18:56;10.00;99.90
53880;DHT22;39791;53.184;5.486;2022-12-20T17:21:41;10.90;99.90
53880;DHT22;39791;53.184;5.486;2022-12-20T17:24:18;10.80;99.90
53880;DHT22;39791;53.184;5.486;2022-12-20T17:26:44;10.60;99.90
53880;DHT22;39791;53.184;5.486;2022-12-20T17:29:11;10.70;99.90